Coppet, Switzerland
Current Conditions -  °F | °C
As of 1:20 PM on Monday 26 Jan 2015 (Local Time) from LSGG Reporting Station
Rain Showers Rain Showers  
Wind Chill: 32°   Ceiling: 7500
Heat Index: 36°   Visibility: 6mi
Dew Point: 27°   Wind: 5mph
Humidity: 70%   Direction: 60°ENE
Pressure: 30.33"   Gusts: NA
Location:  46.32°N, 6.19°E
Report Text: LSGG 261220Z 06004KT 030V090 9999 VCSH FEW025 BKN075 02/M03 Q1027 NOSIG
Loading
Personal Weather Stations






























Interactive Weather Map New forecast layout! Learn more

10-Day Weather Forecast

Advertisements
Track Severe Weather on mobile